Hauptseite
METAR-TAF:

METAR-TAF

Flughäfen :

Tripolis, Libyen

Mitiga International Airport

Breite: 32-54N, Länge: 13-17E, Höhe: 11 m

Beobachtung

Neuester Wetterbericht von vor 30 Minuten, um 17:55 UTC
Wind 10 kt aus Ost
Temperatur 21°C
Luftfeuchtigkeit 60%
Luftdruck 1017 hPa
Sichtweite: 8000 m
Leicht bewölkt in der Höhe von 3000 ft

METAR: HLLM 221755Z 10010KT 8000 FEW030 21/13 Q1017

Zeit: 20:25 (18:25 UTC)

Prognose

Neuester Wetterbericht von vor 1 Stunde und 25 Minuten, um 17:00 UTC
Gültige Prognose vom 22 um 18 UTC bis 23 um 18 UTC
Wind 15 kt aus Ost/Nordost
Sichtweite 10 km oder mehr
keine Wolken unter 1500 m und keine Kumulonimbus oder Gewitterwolken

TAF: HLLM 221700Z 2218/2318 06015KT CAVOK

Wetterbeobachtungen und Prognosen von mehr als 4000 Flughäfen (METAR und TAF Bericht).

Die verfügbaren Stationen werden durch gelbe und rote Markierungen auf der Karte dargestellt.

Führen Sie die Maus auf sie, um den Namen der Station zu sehen.

Darauf klicken, um die Beobachtung von Wetterbeobachtungen und Prognosen zu sehen.

Um die Karte zu ändern : klicken Sie auf den grünen Tasten mit einem schwarzen Kreuz Zum Vergrößern, auf den grünen Button mit einem Gedankenstrich zu verkleinern, oder auf die grünen Pfeile für benachbarte Karten.


METAR-TAF: